sensor_id;sensor_type;location;lat;lon;timestamp;temperature;humidity
78516;SHT31;67815;51.990;5.688;2024-02-15T00:02:22;14.7;78.8
78516;SHT31;67815;51.990;5.688;2024-02-15T00:04:51;14.7;78.8
78516;SHT31;67815;51.990;5.688;2024-02-15T00:07:21;14.7;78.8
78516;SHT31;67815;51.990;5.688;2024-02-15T00:09:51;14.7;78.7
78516;SHT31;67815;51.990;5.688;2024-02-15T00:12:21;14.7;78.7
78516;SHT31;67815;51.990;5.688;2024-02-15T00:14:51;14.7;78.7
78516;SHT31;67815;51.990;5.688;2024-02-15T00:17:21;14.7;78.7
78516;SHT31;67815;51.990;5.688;2024-02-15T00:19:50;14.7;78.5
78516;SHT31;67815;51.990;5.688;2024-02-15T00:22:20;14.7;78.4
78516;SHT31;67815;51.990;5.688;2024-02-15T00:24:50;14.7;78.4
78516;SHT31;67815;51.990;5.688;2024-02-15T00:27:21;14.7;78.4
78516;SHT31;67815;51.990;5.688;2024-02-15T00:29:50;14.8;78.3
78516;SHT31;67815;51.990;5.688;2024-02-15T00:32:20;14.8;78.3
78516;SHT31;67815;51.990;5.688;2024-02-15T00:34:49;14.8;78.2
78516;SHT31;67815;51.990;5.688;2024-02-15T00:37:19;14.8;78.1
78516;SHT31;67815;51.990;5.688;2024-02-15T00:39:48;14.8;78.2
78516;SHT31;67815;51.990;5.688;2024-02-15T00:42:18;14.8;78.1
78516;SHT31;67815;51.990;5.688;2024-02-15T00:44:48;14.8;78.1
78516;SHT31;67815;51.990;5.688;2024-02-15T00:47:17;14.8;78.1
78516;SHT31;67815;51.990;5.688;2024-02-15T00:49:50;14.8;78.2
78516;SHT31;67815;51.990;5.688;2024-02-15T00:52:20;14.8;78.3
78516;SHT31;67815;51.990;5.688;2024-02-15T00:54:50;14.8;78.3
78516;SHT31;67815;51.990;5.688;2024-02-15T00:57:19;14.8;78.3
78516;SHT31;67815;51.990;5.688;2024-02-15T00:59:49;14.7;78.4
78516;SHT31;67815;51.990;5.688;2024-02-15T01:02:19;14.7;78.4
78516;SHT31;67815;51.990;5.688;2024-02-15T01:04:50;14.7;78.4
78516;SHT31;67815;51.990;5.688;2024-02-15T01:07:21;14.7;78.4
78516;SHT31;67815;51.990;5.688;2024-02-15T01:09:55;14.7;78.4
78516;SHT31;67815;51.990;5.688;2024-02-15T01:12:27;14.7;78.5
78516;SHT31;67815;51.990;5.688;2024-02-15T01:14:59;14.7;78.4
78516;SHT31;67815;51.990;5.688;2024-02-15T01:17:28;14.7;78.5
78516;SHT31;67815;51.990;5.688;2024-02-15T01:19:58;14.7;78.5
78516;SHT31;67815;51.990;5.688;2024-02-15T01:22:28;14.7;78.6
78516;SHT31;67815;51.990;5.688;2024-02-15T01:24:59;14.7;78.5
78516;SHT31;67815;51.990;5.688;2024-02-15T01:27:28;14.7;78.6
78516;SHT31;67815;51.990;5.688;2024-02-15T01:29:59;14.7;78.6
78516;SHT31;67815;51.990;5.688;2024-02-15T01:32:29;14.7;78.6
78516;SHT31;67815;51.990;5.688;2024-02-15T01:34:58;14.7;78.4
78516;SHT31;67815;51.990;5.688;2024-02-15T01:37:28;14.7;78.5
78516;SHT31;67815;51.990;5.688;2024-02-15T01:39:57;14.7;78.6
78516;SHT31;67815;51.990;5.688;2024-02-15T01:42:27;14.7;78.7
78516;SHT31;67815;51.990;5.688;2024-02-15T01:44:57;14.7;78.8
78516;SHT31;67815;51.990;5.688;2024-02-15T01:47:27;14.6;78.8
78516;SHT31;67815;51.990;5.688;2024-02-15T01:49:58;14.6;78.8
78516;SHT31;67815;51.990;5.688;2024-02-15T01:52:28;14.6;78.9
78516;SHT31;67815;51.990;5.688;2024-02-15T01:55:00;14.6;78.9
78516;SHT31;67815;51.990;5.688;2024-02-15T01:57:36;14.6;79.1
78516;SHT31;67815;51.990;5.688;2024-02-15T02:00:09;14.6;79.2
78516;SHT31;67815;51.990;5.688;2024-02-15T02:02:42;14.6;79.2
78516;SHT31;67815;51.990;5.688;2024-02-15T02:05:11;14.6;79.1
78516;SHT31;67815;51.990;5.688;2024-02-15T02:07:43;14.6;79.2
78516;SHT31;67815;51.990;5.688;2024-02-15T02:10:13;14.6;79.3
78516;SHT31;67815;51.990;5.688;2024-02-15T02:12:45;14.6;79.1
78516;SHT31;67815;51.990;5.688;2024-02-15T02:15:15;14.6;79.1
78516;SHT31;67815;51.990;5.688;2024-02-15T02:17:48;14.6;79.0
78516;SHT31;67815;51.990;5.688;2024-02-15T02:20:18;14.6;78.9
78516;SHT31;67815;51.990;5.688;2024-02-15T02:22:50;14.6;78.9
78516;SHT31;67815;51.990;5.688;2024-02-15T02:25:24;14.6;78.8
78516;SHT31;67815;51.990;5.688;2024-02-15T02:27:56;14.6;78.8
78516;SHT31;67815;51.990;5.688;2024-02-15T02:30:26;14.6;78.7
78516;SHT31;67815;51.990;5.688;2024-02-15T02:32:57;14.6;78.7
78516;SHT31;67815;51.990;5.688;2024-02-15T02:35:27;14.6;78.7
78516;SHT31;67815;51.990;5.688;2024-02-15T02:37:57;14.6;78.6
78516;SHT31;67815;51.990;5.688;2024-02-15T02:40:26;14.6;78.6
78516;SHT31;67815;51.990;5.688;2024-02-15T02:42:57;14.6;78.5
78516;SHT31;67815;51.990;5.688;2024-02-15T02:45:27;14.6;78.5
78516;SHT31;67815;51.990;5.688;2024-02-15T02:47:57;14.6;78.3
78516;SHT31;67815;51.990;5.688;2024-02-15T02:50:28;14.6;78.3
78516;SHT31;67815;51.990;5.688;2024-02-15T02:52:58;14.6;78.3
78516;SHT31;67815;51.990;5.688;2024-02-15T02:55:27;14.6;78.2
78516;SHT31;67815;51.990;5.688;2024-02-15T02:57:58;14.6;78.2
78516;SHT31;67815;51.990;5.688;2024-02-15T03:00:28;14.6;78.2
78516;SHT31;67815;51.990;5.688;2024-02-15T03:02:59;14.6;78.3
78516;SHT31;67815;51.990;5.688;2024-02-15T03:05:29;14.6;78.2
78516;SHT31;67815;51.990;5.688;2024-02-15T03:07:58;14.6;78.2
78516;SHT31;67815;51.990;5.688;2024-02-15T03:10:28;14.5;78.2
78516;SHT31;67815;51.990;5.688;2024-02-15T03:12:57;14.5;78.2
78516;SHT31;67815;51.990;5.688;2024-02-15T03:15:27;14.5;78.2
78516;SHT31;67815;51.990;5.688;2024-02-15T03:17:56;14.5;78.3
78516;SHT31;67815;51.990;5.688;2024-02-15T03:20:28;14.5;78.3
78516;SHT31;67815;51.990;5.688;2024-02-15T03:22:59;14.5;78.4
78516;SHT31;67815;51.990;5.688;2024-02-15T03:25:30;14.5;78.4
78516;SHT31;67815;51.990;5.688;2024-02-15T03:28:02;14.5;78.4
78516;SHT31;67815;51.990;5.688;2024-02-15T03:30:33;14.5;78.5
78516;SHT31;67815;51.990;5.688;2024-02-15T03:33:03;14.5;78.4
78516;SHT31;67815;51.990;5.688;2024-02-15T03:35:34;14.5;78.4
78516;SHT31;67815;51.990;5.688;2024-02-15T03:38:05;14.5;78.3
78516;SHT31;67815;51.990;5.688;2024-02-15T03:40:36;14.4;78.3
78516;SHT31;67815;51.990;5.688;2024-02-15T03:43:09;14.4;78.4
78516;SHT31;67815;51.990;5.688;2024-02-15T03:45:39;14.4;78.4
78516;SHT31;67815;51.990;5.688;2024-02-15T03:48:09;14.4;78.5
78516;SHT31;67815;51.990;5.688;2024-02-15T03:50:39;14.4;78.4
78516;SHT31;67815;51.990;5.688;2024-02-15T03:53:10;14.4;78.5
78516;SHT31;67815;51.990;5.688;2024-02-15T03:55:41;14.4;78.6
78516;SHT31;67815;51.990;5.688;2024-02-15T03:58:10;14.4;78.6
78516;SHT31;67815;51.990;5.688;2024-02-15T04:00:42;14.4;78.5
78516;SHT31;67815;51.990;5.688;2024-02-15T04:03:11;14.4;78.4
78516;SHT31;67815;51.990;5.688;2024-02-15T04:05:41;14.4;78.4
78516;SHT31;67815;51.990;5.688;2024-02-15T04:08:11;14.4;78.4
78516;SHT31;67815;51.990;5.688;2024-02-15T04:10:41;14.4;78.4
78516;SHT31;67815;51.990;5.688;2024-02-15T04:13:13;14.3;78.3
78516;SHT31;67815;51.990;5.688;2024-02-15T04:15:43;14.3;78.3
78516;SHT31;67815;51.990;5.688;2024-02-15T04:18:14;14.3;78.4
78516;SHT31;67815;51.990;5.688;2024-02-15T04:20:47;14.3;78.7
78516;SHT31;67815;51.990;5.688;2024-02-15T04:23:18;14.3;78.7
78516;SHT31;67815;51.990;5.688;2024-02-15T04:25:51;14.3;78.8
78516;SHT31;67815;51.990;5.688;2024-02-15T04:28:22;14.3;78.9
78516;SHT31;67815;51.990;5.688;2024-02-15T04:30:52;14.3;78.8
78516;SHT31;67815;51.990;5.688;2024-02-15T04:33:25;14.3;78.8
78516;SHT31;67815;51.990;5.688;2024-02-15T04:35:54;14.3;78.8
78516;SHT31;67815;51.990;5.688;2024-02-15T04:38:28;14.3;78.8
78516;SHT31;67815;51.990;5.688;2024-02-15T04:40:58;14.3;78.9
78516;SHT31;67815;51.990;5.688;2024-02-15T04:43:27;14.3;78.8
78516;SHT31;67815;51.990;5.688;2024-02-15T04:45:57;14.3;78.9
78516;SHT31;67815;51.990;5.688;2024-02-15T04:48:30;14.3;78.7
78516;SHT31;67815;51.990;5.688;2024-02-15T04:50:59;14.3;78.7
78516;SHT31;67815;51.990;5.688;2024-02-15T04:53:29;14.3;78.7
78516;SHT31;67815;51.990;5.688;2024-02-15T04:56:00;14.3;78.6
78516;SHT31;67815;51.990;5.688;2024-02-15T04:58:35;14.4;78.7
78516;SHT31;67815;51.990;5.688;2024-02-15T05:01:14;14.4;78.7
78516;SHT31;67815;51.990;5.688;2024-02-15T05:03:45;14.4;78.7
78516;SHT31;67815;51.990;5.688;2024-02-15T05:06:15;14.4;78.7
78516;SHT31;67815;51.990;5.688;2024-02-15T05:08:44;14.4;78.8
78516;SHT31;67815;51.990;5.688;2024-02-15T05:11:14;14.4;78.8
78516;SHT31;67815;51.990;5.688;2024-02-15T05:13:45;14.4;78.8
78516;SHT31;67815;51.990;5.688;2024-02-15T05:16:14;14.4;78.7
78516;SHT31;67815;51.990;5.688;2024-02-15T05:18:45;14.4;78.8
78516;SHT31;67815;51.990;5.688;2024-02-15T05:21:16;14.4;78.9
78516;SHT31;67815;51.990;5.688;2024-02-15T05:23:47;14.4;78.9
78516;SHT31;67815;51.990;5.688;2024-02-15T05:26:18;14.4;78.9
78516;SHT31;67815;51.990;5.688;2024-02-15T05:28:50;14.4;78.9
78516;SHT31;67815;51.990;5.688;2024-02-15T05:31:21;14.4;78.9
78516;SHT31;67815;51.990;5.688;2024-02-15T05:33:53;14.4;79.0
78516;SHT31;67815;51.990;5.688;2024-02-15T05:36:25;14.4;78.9
78516;SHT31;67815;51.990;5.688;2024-02-15T05:38:54;14.4;78.8
78516;SHT31;67815;51.990;5.688;2024-02-15T05:41:25;14.4;78.8
78516;SHT31;67815;51.990;5.688;2024-02-15T05:43:54;14.4;78.8
78516;SHT31;67815;51.990;5.688;2024-02-15T05:46:26;14.4;78.7
78516;SHT31;67815;51.990;5.688;2024-02-15T05:48:56;14.4;78.8
78516;SHT31;67815;51.990;5.688;2024-02-15T05:51:26;14.5;78.7
78516;SHT31;67815;51.990;5.688;2024-02-15T05:53:58;14.5;78.7
78516;SHT31;67815;51.990;5.688;2024-02-15T05:56:28;14.5;78.6
78516;SHT31;67815;51.990;5.688;2024-02-15T05:58:57;14.5;78.7
78516;SHT31;67815;51.990;5.688;2024-02-15T06:01:31;14.5;78.7
78516;SHT31;67815;51.990;5.688;2024-02-15T06:04:01;14.4;78.7
78516;SHT31;67815;51.990;5.688;2024-02-15T06:06:34;14.4;78.8
78516;SHT31;67815;51.990;5.688;2024-02-15T06:09:04;14.4;79.0
78516;SHT31;67815;51.990;5.688;2024-02-15T06:11:33;14.4;79.1
78516;SHT31;67815;51.990;5.688;2024-02-15T06:14:04;14.4;79.2
78516;SHT31;67815;51.990;5.688;2024-02-15T06:16:43;14.4;79.3
78516;SHT31;67815;51.990;5.688;2024-02-15T06:19:14;14.4;79.4
78516;SHT31;67815;51.990;5.688;2024-02-15T06:21:44;14.4;79.4
78516;SHT31;67815;51.990;5.688;2024-02-15T06:24:14;14.4;79.4
78516;SHT31;67815;51.990;5.688;2024-02-15T06:26:45;14.4;79.2
78516;SHT31;67815;51.990;5.688;2024-02-15T06:29:19;14.4;79.2
78516;SHT31;67815;51.990;5.688;2024-02-15T06:32:06;14.4;79.2
78516;SHT31;67815;51.990;5.688;2024-02-15T06:34:51;14.4;79.1
78516;SHT31;67815;51.990;5.688;2024-02-15T06:37:38;14.4;79.1
78516;SHT31;67815;51.990;5.688;2024-02-15T06:40:25;14.4;79.0
78516;SHT31;67815;51.990;5.688;2024-02-15T06:42:56;14.5;78.9
78516;SHT31;67815;51.990;5.688;2024-02-15T06:45:26;14.5;78.7
78516;SHT31;67815;51.990;5.688;2024-02-15T06:47:59;14.5;78.8
78516;SHT31;67815;51.990;5.688;2024-02-15T06:50:29;14.5;78.7
78516;SHT31;67815;51.990;5.688;2024-02-15T06:52:58;14.5;78.8
78516;SHT31;67815;51.990;5.688;2024-02-15T06:55:28;14.5;78.8
78516;SHT31;67815;51.990;5.688;2024-02-15T06:57:58;14.5;78.8
78516;SHT31;67815;51.990;5.688;2024-02-15T07:00:28;14.5;78.9
78516;SHT31;67815;51.990;5.688;2024-02-15T07:02:58;14.5;78.9
78516;SHT31;67815;51.990;5.688;2024-02-15T07:05:27;14.5;79.0
78516;SHT31;67815;51.990;5.688;2024-02-15T07:07:57;14.5;79.0
78516;SHT31;67815;51.990;5.688;2024-02-15T07:10:27;14.5;79.1
78516;SHT31;67815;51.990;5.688;2024-02-15T07:12:59;14.5;79.1
78516;SHT31;67815;51.990;5.688;2024-02-15T07:15:30;14.5;79.1
78516;SHT31;67815;51.990;5.688;2024-02-15T07:18:06;14.5;79.1
78516;SHT31;67815;51.990;5.688;2024-02-15T07:20:36;14.5;79.2
78516;SHT31;67815;51.990;5.688;2024-02-15T07:23:09;14.5;79.2
78516;SHT31;67815;51.990;5.688;2024-02-15T07:25:39;14.5;79.2
78516;SHT31;67815;51.990;5.688;2024-02-15T07:28:08;14.5;79.2
78516;SHT31;67815;51.990;5.688;2024-02-15T07:30:38;14.5;79.2
78516;SHT31;67815;51.990;5.688;2024-02-15T07:33:07;14.5;79.2
78516;SHT31;67815;51.990;5.688;2024-02-15T07:35:37;14.5;79.1
78516;SHT31;67815;51.990;5.688;2024-02-15T07:38:06;14.5;79.1
78516;SHT31;67815;51.990;5.688;2024-02-15T07:40:37;14.5;79.0
78516;SHT31;67815;51.990;5.688;2024-02-15T07:43:07;14.5;79.0
78516;SHT31;67815;51.990;5.688;2024-02-15T07:45:40;14.5;78.9
78516;SHT31;67815;51.990;5.688;2024-02-15T07:48:09;14.6;79.1
78516;SHT31;67815;51.990;5.688;2024-02-15T07:50:39;14.6;78.9
78516;SHT31;67815;51.990;5.688;2024-02-15T07:53:11;14.6;79.0
78516;SHT31;67815;51.990;5.688;2024-02-15T07:55:41;14.6;79.1
78516;SHT31;67815;51.990;5.688;2024-02-15T07:58:12;14.6;79.0
78516;SHT31;67815;51.990;5.688;2024-02-15T08:00:41;14.6;79.1
78516;SHT31;67815;51.990;5.688;2024-02-15T08:03:11;14.6;79.0
78516;SHT31;67815;51.990;5.688;2024-02-15T08:05:42;14.6;79.0
78516;SHT31;67815;51.990;5.688;2024-02-15T08:08:11;14.6;79.0
78516;SHT31;67815;51.990;5.688;2024-02-15T08:10:41;14.6;79.0
78516;SHT31;67815;51.990;5.688;2024-02-15T08:13:11;14.6;79.0
78516;SHT31;67815;51.990;5.688;2024-02-15T08:15:42;14.6;78.9
78516;SHT31;67815;51.990;5.688;2024-02-15T08:18:14;14.7;78.8
78516;SHT31;67815;51.990;5.688;2024-02-15T08:20:45;14.7;78.7
78516;SHT31;67815;51.990;5.688;2024-02-15T08:23:16;14.7;78.8
78516;SHT31;67815;51.990;5.688;2024-02-15T08:25:46;14.7;78.8
78516;SHT31;67815;51.990;5.688;2024-02-15T08:28:15;14.7;78.8
78516;SHT31;67815;51.990;5.688;2024-02-15T08:30:48;14.7;78.8
78516;SHT31;67815;51.990;5.688;2024-02-15T08:33:18;14.7;78.8
78516;SHT31;67815;51.990;5.688;2024-02-15T08:35:49;14.7;78.7
78516;SHT31;67815;51.990;5.688;2024-02-15T08:38:23;14.8;78.7
78516;SHT31;67815;51.990;5.688;2024-02-15T08:40:52;14.8;78.6
78516;SHT31;67815;51.990;5.688;2024-02-15T08:43:22;14.8;78.6
78516;SHT31;67815;51.990;5.688;2024-02-15T08:45:53;14.8;78.5
78516;SHT31;67815;51.990;5.688;2024-02-15T08:48:23;14.8;78.6
78516;SHT31;67815;51.990;5.688;2024-02-15T08:50:53;14.8;78.7
78516;SHT31;67815;51.990;5.688;2024-02-15T08:53:22;14.7;78.9
78516;SHT31;67815;51.990;5.688;2024-02-15T08:55:52;14.7;79.0
78516;SHT31;67815;51.990;5.688;2024-02-15T08:58:22;14.7;79.1
78516;SHT31;67815;51.990;5.688;2024-02-15T09:00:51;14.7;79.2
78516;SHT31;67815;51.990;5.688;2024-02-15T09:03:21;14.7;79.4
78516;SHT31;67815;51.990;5.688;2024-02-15T09:05:51;14.7;79.4
78516;SHT31;67815;51.990;5.688;2024-02-15T09:08:23;14.7;79.4
78516;SHT31;67815;51.990;5.688;2024-02-15T09:10:52;14.7;79.4
78516;SHT31;67815;51.990;5.688;2024-02-15T09:13:22;14.7;79.4
78516;SHT31;67815;51.990;5.688;2024-02-15T09:15:52;14.7;79.4
78516;SHT31;67815;51.990;5.688;2024-02-15T09:18:22;14.7;79.4
78516;SHT31;67815;51.990;5.688;2024-02-15T09:20:52;14.7;79.4
78516;SHT31;67815;51.990;5.688;2024-02-15T09:23:23;14.6;79.5
78516;SHT31;67815;51.990;5.688;2024-02-15T09:25:52;14.6;79.7
78516;SHT31;67815;51.990;5.688;2024-02-15T09:28:22;14.6;79.8
78516;SHT31;67815;51.990;5.688;2024-02-15T09:30:53;14.6;79.8
78516;SHT31;67815;51.990;5.688;2024-02-15T09:33:27;14.6;79.9
78516;SHT31;67815;51.990;5.688;2024-02-15T09:35:56;14.6;79.9
78516;SHT31;67815;51.990;5.688;2024-02-15T09:38:26;14.6;79.9
78516;SHT31;67815;51.990;5.688;2024-02-15T09:40:56;14.6;80.0
78516;SHT31;67815;51.990;5.688;2024-02-15T09:43:28;14.6;80.0
78516;SHT31;67815;51.990;5.688;2024-02-15T09:45:57;14.6;80.0
78516;SHT31;67815;51.990;5.688;2024-02-15T09:48:32;14.6;79.9
78516;SHT31;67815;51.990;5.688;2024-02-15T09:51:04;14.6;80.0
78516;SHT31;67815;51.990;5.688;2024-02-15T09:53:34;14.6;80.0
78516;SHT31;67815;51.990;5.688;2024-02-15T09:56:06;14.6;80.1
78516;SHT31;67815;51.990;5.688;2024-02-15T09:58:38;14.6;80.2
78516;SHT31;67815;51.990;5.688;2024-02-15T10:01:11;14.6;80.3
78516;SHT31;67815;51.990;5.688;2024-02-15T10:03:42;14.6;80.2
78516;SHT31;67815;51.990;5.688;2024-02-15T10:06:11;14.6;80.2
78516;SHT31;67815;51.990;5.688;2024-02-15T10:08:41;14.6;79.9
78516;SHT31;67815;51.990;5.688;2024-02-15T10:11:11;14.6;79.7
78516;SHT31;67815;51.990;5.688;2024-02-15T10:13:40;14.6;79.8
78516;SHT31;67815;51.990;5.688;2024-02-15T10:16:19;14.6;79.6
78516;SHT31;67815;51.990;5.688;2024-02-15T10:18:53;14.6;79.7
78516;SHT31;67815;51.990;5.688;2024-02-15T10:21:28;14.7;79.5
78516;SHT31;67815;51.990;5.688;2024-02-15T10:24:05;14.7;79.4
78516;SHT31;67815;51.990;5.688;2024-02-15T10:26:36;14.7;79.3
78516;SHT31;67815;51.990;5.688;2024-02-15T10:29:11;14.7;79.5
78516;SHT31;67815;51.990;5.688;2024-02-15T10:31:56;14.7;79.6
78516;SHT31;67815;51.990;5.688;2024-02-15T10:34:26;14.7;79.7
78516;SHT31;67815;51.990;5.688;2024-02-15T10:37:12;14.7;79.7
78516;SHT31;67815;51.990;5.688;2024-02-15T10:39:44;14.7;79.6
78516;SHT31;67815;51.990;5.688;2024-02-15T10:42:17;14.7;79.5
78516;SHT31;67815;51.990;5.688;2024-02-15T10:44:50;14.7;79.7
78516;SHT31;67815;51.990;5.688;2024-02-15T10:47:21;14.7;79.6
78516;SHT31;67815;51.990;5.688;2024-02-15T10:49:51;14.7;79.7
78516;SHT31;67815;51.990;5.688;2024-02-15T10:52:24;14.7;79.8
78516;SHT31;67815;51.990;5.688;2024-02-15T10:55:05;14.7;79.8
78516;SHT31;67815;51.990;5.688;2024-02-15T10:57:48;14.8;79.9
78516;SHT31;67815;51.990;5.688;2024-02-15T11:00:22;14.8;79.8
78516;SHT31;67815;51.990;5.688;2024-02-15T11:03:01;14.8;79.8
78516;SHT31;67815;51.990;5.688;2024-02-15T11:05:35;14.8;79.9
78516;SHT31;67815;51.990;5.688;2024-02-15T11:08:08;14.8;79.8
78516;SHT31;67815;51.990;5.688;2024-02-15T11:10:39;14.8;79.9
78516;SHT31;67815;51.990;5.688;2024-02-15T11:13:11;14.8;80.0
78516;SHT31;67815;51.990;5.688;2024-02-15T11:15:43;14.8;80.0
78516;SHT31;67815;51.990;5.688;2024-02-15T11:18:45;14.9;80.1
78516;SHT31;67815;51.990;5.688;2024-02-15T11:21:17;14.9;80.0
78516;SHT31;67815;51.990;5.688;2024-02-15T11:23:47;14.9;80.2
78516;SHT31;67815;51.990;5.688;2024-02-15T11:26:46;14.9;80.2
78516;SHT31;67815;51.990;5.688;2024-02-15T11:29:52;14.9;80.2
78516;SHT31;67815;51.990;5.688;2024-02-15T11:32:39;15.0;80.1
78516;SHT31;67815;51.990;5.688;2024-02-15T11:35:12;15.0;80.1
78516;SHT31;67815;51.990;5.688;2024-02-15T11:37:59;15.0;80.1
78516;SHT31;67815;51.990;5.688;2024-02-15T11:41:01;15.0;80.1
78516;SHT31;67815;51.990;5.688;2024-02-15T11:43:51;15.1;80.4
78516;SHT31;67815;51.990;5.688;2024-02-15T11:46:26;15.1;80.4
78516;SHT31;67815;51.990;5.688;2024-02-15T11:49:01;15.1;80.3
78516;SHT31;67815;51.990;5.688;2024-02-15T11:51:33;15.1;80.2
78516;SHT31;67815;51.990;5.688;2024-02-15T11:54:10;15.2;80.2
78516;SHT31;67815;51.990;5.688;2024-02-15T11:56:56;15.2;80.0
78516;SHT31;67815;51.990;5.688;2024-02-15T11:59:42;15.2;80.0
78516;SHT31;67815;51.990;5.688;2024-02-15T12:02:18;15.3;80.1
78516;SHT31;67815;51.990;5.688;2024-02-15T12:05:04;15.3;80.3
78516;SHT31;67815;51.990;5.688;2024-02-15T12:09:41;15.3;80.6
78516;SHT31;67815;51.990;5.688;2024-02-15T12:12:27;15.4;80.6
78516;SHT31;67815;51.990;5.688;2024-02-15T12:15:14;15.4;80.7
78516;SHT31;67815;51.990;5.688;2024-02-15T12:18:15;15.4;80.6
78516;SHT31;67815;51.990;5.688;2024-02-15T12:21:22;15.5;80.4
78516;SHT31;67815;51.990;5.688;2024-02-15T12:23:54;15.6;80.0
78516;SHT31;67815;51.990;5.688;2024-02-15T12:26:27;15.6;79.8
78516;SHT31;67815;51.990;5.688;2024-02-15T12:29:01;15.6;80.0
78516;SHT31;67815;51.990;5.688;2024-02-15T12:31:36;15.6;79.9
78516;SHT31;67815;51.990;5.688;2024-02-15T12:34:06;15.7;79.4
78516;SHT31;67815;51.990;5.688;2024-02-15T12:36:37;15.7;79.5
78516;SHT31;67815;51.990;5.688;2024-02-15T12:39:07;15.7;79.8
78516;SHT31;67815;51.990;5.688;2024-02-15T12:41:48;15.7;80.1
78516;SHT31;67815;51.990;5.688;2024-02-15T12:44:19;15.8;80.3
78516;SHT31;67815;51.990;5.688;2024-02-15T12:46:55;15.8;79.3
78516;SHT31;67815;51.990;5.688;2024-02-15T12:49:31;15.8;79.7
78516;SHT31;67815;51.990;5.688;2024-02-15T12:52:37;15.8;79.9
78516;SHT31;67815;51.990;5.688;2024-02-15T12:55:08;15.9;80.2
78516;SHT31;67815;51.990;5.688;2024-02-15T12:57:39;15.9;79.9
78516;SHT31;67815;51.990;5.688;2024-02-15T13:00:13;15.9;79.9
78516;SHT31;67815;51.990;5.688;2024-02-15T13:02:47;16.0;79.7
78516;SHT31;67815;51.990;5.688;2024-02-15T13:05:18;16.0;79.3
78516;SHT31;67815;51.990;5.688;2024-02-15T13:07:50;16.0;79.3
78516;SHT31;67815;51.990;5.688;2024-02-15T13:10:23;16.1;79.1
78516;SHT31;67815;51.990;5.688;2024-02-15T13:12:53;16.1;78.9
78516;SHT31;67815;51.990;5.688;2024-02-15T13:15:24;16.1;78.8
78516;SHT31;67815;51.990;5.688;2024-02-15T13:18:00;16.1;78.4
78516;SHT31;67815;51.990;5.688;2024-02-15T13:20:32;16.1;78.5
78516;SHT31;67815;51.990;5.688;2024-02-15T13:23:04;16.1;78.0
78516;SHT31;67815;51.990;5.688;2024-02-15T13:25:43;16.2;78.2
78516;SHT31;67815;51.990;5.688;2024-02-15T13:28:13;16.2;77.9
78516;SHT31;67815;51.990;5.688;2024-02-15T13:30:42;16.2;78.2
78516;SHT31;67815;51.990;5.688;2024-02-15T13:33:13;16.2;77.9
78516;SHT31;67815;51.990;5.688;2024-02-15T13:35:43;16.2;77.9
78516;SHT31;67815;51.990;5.688;2024-02-15T13:38:13;16.2;78.0
78516;SHT31;67815;51.990;5.688;2024-02-15T13:40:49;16.2;77.8
78516;SHT31;67815;51.990;5.688;2024-02-15T13:43:19;16.2;77.0
78516;SHT31;67815;51.990;5.688;2024-02-15T13:45:49;16.2;77.6
78516;SHT31;67815;51.990;5.688;2024-02-15T13:48:20;16.2;77.7
78516;SHT31;67815;51.990;5.688;2024-02-15T13:50:53;16.2;78.2
78516;SHT31;67815;51.990;5.688;2024-02-15T13:53:22;16.2;78.3
78516;SHT31;67815;51.990;5.688;2024-02-15T13:55:52;16.2;78.4
78516;SHT31;67815;51.990;5.688;2024-02-15T13:58:22;16.2;78.5
78516;SHT31;67815;51.990;5.688;2024-02-15T14:00:52;16.2;78.2
78516;SHT31;67815;51.990;5.688;2024-02-15T14:03:25;16.2;78.3
78516;SHT31;67815;51.990;5.688;2024-02-15T14:05:54;16.3;78.6
78516;SHT31;67815;51.990;5.688;2024-02-15T14:08:25;16.3;78.3
78516;SHT31;67815;51.990;5.688;2024-02-15T14:10:55;16.3;78.5
78516;SHT31;67815;51.990;5.688;2024-02-15T14:13:24;16.3;78.6
78516;SHT31;67815;51.990;5.688;2024-02-15T14:15:54;16.3;78.6
78516;SHT31;67815;51.990;5.688;2024-02-15T14:18:25;16.3;78.3
78516;SHT31;67815;51.990;5.688;2024-02-15T14:20:57;16.3;77.8
78516;SHT31;67815;51.990;5.688;2024-02-15T14:23:28;16.4;77.9
78516;SHT31;67815;51.990;5.688;2024-02-15T14:25:58;16.4;77.8
78516;SHT31;67815;51.990;5.688;2024-02-15T14:28:29;16.4;77.9
78516;SHT31;67815;51.990;5.688;2024-02-15T14:31:00;16.4;77.4
78516;SHT31;67815;51.990;5.688;2024-02-15T14:33:47;16.4;77.4
78516;SHT31;67815;51.990;5.688;2024-02-15T14:36:19;16.4;77.5
78516;SHT31;67815;51.990;5.688;2024-02-15T14:38:49;16.4;77.6
78516;SHT31;67815;51.990;5.688;2024-02-15T14:41:20;16.4;77.8
78516;SHT31;67815;51.990;5.688;2024-02-15T14:43:50;16.4;77.8
78516;SHT31;67815;51.990;5.688;2024-02-15T14:46:22;16.4;77.8
78516;SHT31;67815;51.990;5.688;2024-02-15T14:48:52;16.4;78.1
78516;SHT31;67815;51.990;5.688;2024-02-15T14:51:24;16.4;78.0
78516;SHT31;67815;51.990;5.688;2024-02-15T14:53:53;16.4;78.0
78516;SHT31;67815;51.990;5.688;2024-02-15T14:56:23;16.4;78.0
78516;SHT31;67815;51.990;5.688;2024-02-15T14:58:52;16.4;77.9
78516;SHT31;67815;51.990;5.688;2024-02-15T15:01:22;16.4;78.0
78516;SHT31;67815;51.990;5.688;2024-02-15T15:03:56;16.4;77.6
78516;SHT31;67815;51.990;5.688;2024-02-15T15:06:31;16.4;77.6
78516;SHT31;67815;51.990;5.688;2024-02-15T15:09:17;16.4;77.7
78516;SHT31;67815;51.990;5.688;2024-02-15T15:12:03;16.4;77.7
78516;SHT31;67815;51.990;5.688;2024-02-15T15:14:49;16.4;77.8
78516;SHT31;67815;51.990;5.688;2024-02-15T15:17:19;16.4;77.7
78516;SHT31;67815;51.990;5.688;2024-02-15T15:19:49;16.4;77.8
78516;SHT31;67815;51.990;5.688;2024-02-15T15:22:18;16.4;77.7
78516;SHT31;67815;51.990;5.688;2024-02-15T15:24:48;16.4;77.8
78516;SHT31;67815;51.990;5.688;2024-02-15T15:27:18;16.4;77.8
78516;SHT31;67815;51.990;5.688;2024-02-15T15:29:48;16.4;77.7
78516;SHT31;67815;51.990;5.688;2024-02-15T15:32:17;16.4;77.6
78516;SHT31;67815;51.990;5.688;2024-02-15T15:34:47;16.4;77.7
78516;SHT31;67815;51.990;5.688;2024-02-15T15:37:18;16.4;77.7
78516;SHT31;67815;51.990;5.688;2024-02-15T15:39:50;16.4;77.7
78516;SHT31;67815;51.990;5.688;2024-02-15T15:42:22;16.4;77.7
78516;SHT31;67815;51.990;5.688;2024-02-15T15:44:52;16.4;77.5
78516;SHT31;67815;51.990;5.688;2024-02-15T15:47:22;16.4;77.6
78516;SHT31;67815;51.990;5.688;2024-02-15T15:49:52;16.4;77.5
78516;SHT31;67815;51.990;5.688;2024-02-15T15:52:26;16.4;77.5
78516;SHT31;67815;51.990;5.688;2024-02-15T15:54:55;16.4;77.5
78516;SHT31;67815;51.990;5.688;2024-02-15T15:57:26;16.3;77.4
78516;SHT31;67815;51.990;5.688;2024-02-15T15:59:56;16.3;77.3
78516;SHT31;67815;51.990;5.688;2024-02-15T16:02:26;16.3;77.1
78516;SHT31;67815;51.990;5.688;2024-02-15T16:04:56;16.3;77.0
78516;SHT31;67815;51.990;5.688;2024-02-15T16:07:26;16.3;77.1
78516;SHT31;67815;51.990;5.688;2024-02-15T16:09:56;16.3;77.0
78516;SHT31;67815;51.990;5.688;2024-02-15T16:12:25;16.3;76.9
78516;SHT31;67815;51.990;5.688;2024-02-15T16:14:55;16.3;76.7
78516;SHT31;67815;51.990;5.688;2024-02-15T16:17:25;16.2;76.7
78516;SHT31;67815;51.990;5.688;2024-02-15T16:19:57;16.2;76.2
78516;SHT31;67815;51.990;5.688;2024-02-15T16:22:27;16.2;76.3
78516;SHT31;67815;51.990;5.688;2024-02-15T16:24:56;16.2;76.3
78516;SHT31;67815;51.990;5.688;2024-02-15T16:27:28;16.1;76.4
78516;SHT31;67815;51.990;5.688;2024-02-15T16:29:57;16.1;76.3
78516;SHT31;67815;51.990;5.688;2024-02-15T16:32:28;16.1;76.1
78516;SHT31;67815;51.990;5.688;2024-02-15T16:34:59;16.1;75.9
78516;SHT31;67815;51.990;5.688;2024-02-15T16:37:33;16.1;75.9